Time;durP1;ratioP1;P1;durP2;ratioP2;P2;SDS_P1;SDS_P2;PMS_P1;PMS_P2;Temp;Humidity;BMP_temperature;BMP_pressure;BME280_temperature;BME280_humidity;BME280_pressure;Samples;Min_cycle;Max_cycle;Signal;HPM_P1;HPM_P2
2023/02/15 00:04:48;;;;;;;20.40;13.70;;;;;;;6.37;60.89;100736.45;232957;1192;139155;-71
2023/02/15 00:09:51;;;;;;;19.20;13.10;;;;;;;6.36;60.58;100732.95;230908;1194;139191;-71
2023/02/15 00:14:55;;;;;;;22.30;12.60;;;;;;;6.36;60.99;100729.41;229662;1199;138836;-71
2023/02/15 00:19:58;;;;;;;18.80;12.50;;;;;;;6.34;60.71;100734.90;230551;1199;138664;-71
2023/02/15 00:25:01;;;;;;;18.30;12.50;;;;;;;6.30;60.85;100732.88;231956;1198;139588;-70
2023/02/15 00:30:05;;;;;;;19.10;13.60;;;;;;;6.28;60.98;100725.50;229346;1194;138860;-71
2023/02/15 00:35:09;;;;;;;18.50;13.10;;;;;;;6.32;60.79;100717.70;230325;1196;139344;-71
2023/02/15 00:40:13;;;;;;;19.60;14.30;;;;;;;6.30;60.68;100712.07;233144;1196;139823;-72
2023/02/15 00:45:18;;;;;;;14.70;10.30;;;;;;;6.27;60.80;100712.83;229194;1197;139227;-71
2023/02/15 00:50:22;;;;;;;17.90;12.80;;;;;;;6.18;60.39;100713.33;232385;1193;139646;-71
2023/02/15 00:55:26;;;;;;;18.60;13.60;;;;;;;6.18;60.70;100708.40;230322;1192;139708;-72
2023/02/15 01:00:32;;;;;;;21.80;14.60;;;;;;;6.19;60.93;100700.11;229380;1199;139371;-72
2023/02/15 01:05:36;;;;;;;18.70;13.80;;;;;;;6.20;60.99;100695.33;231671;1194;138685;-72
2023/02/15 01:10:39;;;;;;;19.30;13.90;;;;;;;6.19;61.06;100684.42;229840;1193;139018;-73
2023/02/15 01:15:45;;;;;;;18.00;13.30;;;;;;;6.15;61.31;100682.53;230948;1196;139516;-72
2023/02/15 01:20:49;;;;;;;18.20;12.30;;;;;;;6.12;61.51;100678.38;229522;1193;138759;-72
2023/02/15 01:25:53;;;;;;;17.60;11.60;;;;;;;6.10;60.92;100681.05;230547;1196;139644;-71
2023/02/15 01:30:56;;;;;;;16.60;12.70;;;;;;;6.11;60.92;100674.35;230401;1193;141471;-73
2023/02/15 01:36:00;;;;;;;17.40;13.20;;;;;;;6.10;61.09;100675.05;231061;1193;139791;-71
2023/02/15 01:41:19;;;;;;;20.00;13.50;;;;;;;6.09;61.22;100667.32;230626;1192;138914;-71
2023/02/15 01:46:44;;;;;;;21.20;15.10;;;;;;;6.08;61.55;100669.09;229379;1193;139367;-70
2023/02/15 01:51:51;;;;;;;20.40;15.20;;;;;;;6.10;61.62;100665.52;229829;1197;139240;-72
2023/02/15 01:57:02;;;;;;;21.10;15.00;;;;;;;6.09;61.69;100661.68;232242;1193;138932;-73
2023/02/15 02:02:09;;;;;;;23.40;15.80;;;;;;;6.08;61.58;100657.64;234560;1193;139810;-73
2023/02/15 02:07:16;;;;;;;20.30;13.70;;;;;;;6.10;61.55;100651.27;233493;1193;138692;-73
2023/02/15 02:12:21;;;;;;;18.10;13.10;;;;;;;6.08;61.40;100643.38;230694;1198;138554;-73
2023/02/15 02:17:39;;;;;;;20.40;14.50;;;;;;;6.07;61.57;100639.52;230963;1196;138750;-73
2023/02/15 02:23:20;;;;;;;20.60;14.40;;;;;;;6.07;61.53;100635.83;230734;1198;138560;-73
2023/02/15 02:28:57;;;;;;;19.70;14.70;;;;;;;6.04;61.78;100635.17;229722;1193;139167;-72
2023/02/15 02:34:09;;;;;;;18.50;14.30;;;;;;;6.01;62.09;100631.52;231612;1193;139656;-73
2023/02/15 02:39:13;;;;;;;20.60;15.50;;;;;;;6.00;62.14;100628.73;234966;1193;139147;-73
2023/02/15 02:44:22;;;;;;;25.10;16.30;;;;;;;6.00;61.91;100622.56;233353;1192;139538;-74
2023/02/15 02:49:36;;;;;;;20.50;15.40;;;;;;;5.97;62.13;100622.08;235284;1196;140688;-74
2023/02/15 02:54:40;;;;;;;21.20;16.10;;;;;;;6.01;61.82;100623.77;233312;1196;139196;-72
2023/02/15 02:59:46;;;;;;;21.70;17.50;;;;;;;5.98;62.18;100619.95;230326;1197;138730;-71
2023/02/15 03:04:58;;;;;;;24.20;17.10;;;;;;;5.93;62.18;100616.86;233273;1193;139069;-72
2023/02/15 03:10:04;;;;;;;24.10;18.20;;;;;;;5.90;62.53;100616.54;232747;1193;138964;-72
2023/02/15 03:15:19;;;;;;;22.60;17.00;;;;;;;5.89;62.59;100610.22;231399;1196;138604;-73
2023/02/15 03:20:27;;;;;;;22.20;17.20;;;;;;;5.88;62.70;100607.77;231859;1192;139385;-75
2023/02/15 03:25:39;;;;;;;24.50;18.40;;;;;;;5.88;62.88;100605.11;228879;1197;139417;-75
2023/02/15 03:30:47;;;;;;;24.50;18.50;;;;;;;5.85;62.86;100604.48;229930;1195;138744;-73
2023/02/15 03:35:59;;;;;;;28.60;19.30;;;;;;;5.86;62.71;100600.05;233297;1193;139255;-74
2023/02/15 03:41:10;;;;;;;25.40;19.90;;;;;;;5.88;62.58;100595.08;233474;1193;138906;-72
2023/02/15 03:46:27;;;;;;;31.10;22.60;;;;;;;5.86;62.79;100590.72;230224;1192;139625;-71
2023/02/15 03:51:37;;;;;;;34.50;25.20;;;;;;;5.86;62.72;100585.27;229409;1193;139803;-72
2023/02/15 04:01:56;;;;;;;32.90;25.10;;;;;;;5.87;62.96;100584.34;233271;1194;138699;-72
2023/02/15 04:02:21;;;;;;;28.40;20.00;;;;;;;5.86;62.78;100582.96;230306;1196;141132;-73
2023/02/15 04:07:24;;;;;;;23.50;17.90;;;;;;;5.89;62.82;100590.14;228859;1200;139837;-73
2023/02/15 04:12:28;;;;;;;27.60;20.10;;;;;;;5.94;62.78;100586.39;229642;1207;139529;-74
2023/02/15 04:17:31;;;;;;;27.90;21.70;;;;;;;5.99;62.59;100590.33;229777;1193;139175;-73
2023/02/15 04:27:57;;;;;;;32.10;23.80;;;;;;;5.97;62.65;100588.08;229369;1197;138907;-75
2023/02/15 04:33:00;;;;;;;33.10;23.60;;;;;;;5.96;62.67;100588.99;231009;1196;138876;-75
2023/02/15 04:38:04;;;;;;;33.80;24.70;;;;;;;5.97;62.58;100584.56;229973;1196;138841;-74
2023/02/15 04:43:07;;;;;;;32.90;22.40;;;;;;;5.96;62.37;100583.52;231380;1194;139002;-69
2023/02/15 04:48:10;;;;;;;28.80;21.50;;;;;;;5.92;62.41;100579.35;230908;1193;139518;-73
2023/02/15 04:53:17;;;;;;;27.90;20.80;;;;;;;5.84;62.65;100580.52;230566;1192;138612;-74
2023/02/15 04:58:20;;;;;;;;;;;;;;;5.75;62.64;100584.39;231231;1195;139685;-75
2023/02/15 05:03:24;;;;;;;30.50;21.20;;;;;;;5.73;62.92;100584.78;229537;1195;126006;-74
2023/02/15 05:08:28;;;;;;;29.80;20.80;;;;;;;5.66;62.91;100589.30;234143;1193;139559;-74
2023/02/15 05:13:31;;;;;;;62.10;43.20;;;;;;;5.72;63.25;100590.42;231336;1196;139057;-73
2023/02/15 05:18:35;;;;;;;25.40;18.20;;;;;;;5.78;63.12;100592.98;234769;1192;139001;-74
2023/02/15 05:23:38;;;;;;;22.30;16.30;;;;;;;5.79;62.82;100597.86;232328;1195;140098;-76
2023/02/15 05:28:43;;;;;;;20.50;16.10;;;;;;;5.79;63.01;100586.27;230257;1196;138606;-73
2023/02/15 05:33:46;;;;;;;21.80;16.20;;;;;;;5.69;62.58;100588.38;229007;1194;139264;-74
2023/02/15 05:38:50;;;;;;;23.40;15.70;;;;;;;5.60;62.75;100590.98;229880;1197;138904;-75
2023/02/15 05:43:56;;;;;;;111.20;72.90;;;;;;;5.61;63.76;100594.66;228735;1198;139794;-73
2023/02/15 05:49:00;;;;;;;104.10;72.60;;;;;;;5.68;63.48;100597.89;230906;1193;139420;-72
2023/02/15 05:54:03;;;;;;;22.90;18.50;;;;;;;5.80;63.40;100597.87;235105;1193;139308;-70
2023/02/15 05:59:07;;;;;;;26.70;20.80;;;;;;;5.85;62.83;100597.43;235095;1193;139023;-73
2023/02/15 06:04:12;;;;;;;244.50;164.80;;;;;;;5.85;62.80;100598.13;235476;1192;140557;-71
2023/02/15 06:09:18;;;;;;;37.80;26.30;;;;;;;5.93;62.92;100599.41;235416;1193;139237;-73
2023/02/15 06:14:21;;;;;;;31.60;22.20;;;;;;;5.89;62.80;100594.89;235513;1193;139766;-73
2023/02/15 06:19:25;;;;;;;31.80;22.30;;;;;;;5.85;62.58;100594.77;233178;1193;138917;-74
2023/02/15 06:24:28;;;;;;;32.10;23.40;;;;;;;5.84;62.53;100596.90;233057;1193;140058;-74
2023/02/15 06:29:32;;;;;;;29.90;22.30;;;;;;;5.74;62.65;100598.33;229700;1196;140789;-74
2023/02/15 06:34:35;;;;;;;32.90;22.30;;;;;;;5.70;63.07;100600.34;228794;1194;139867;-74
2023/02/15 06:39:39;;;;;;;32.00;22.50;;;;;;;5.76;63.01;100601.80;234005;1193;138989;-71
2023/02/15 06:44:42;;;;;;;33.90;22.60;;;;;;;5.77;62.83;100602.67;231581;1195;139078;-71
2023/02/15 06:49:46;;;;;;;34.30;23.20;;;;;;;5.75;63.01;100603.24;228967;1193;139086;-72
2023/02/15 06:54:50;;;;;;;29.40;20.90;;;;;;;5.77;62.97;100606.56;232374;1193;139428;-72
2023/02/15 06:59:53;;;;;;;30.40;20.50;;;;;;;5.76;63.07;100606.02;232440;1193;140443;-72
2023/02/15 07:04:57;;;;;;;29.60;21.20;;;;;;;5.70;62.95;100601.38;234129;1193;139248;-72
2023/02/15 07:10:01;;;;;;;111.90;78.60;;;;;;;5.68;62.93;100599.83;230386;1196;138944;-72
2023/02/15 07:15:06;;;;;;;51.90;36.30;;;;;;;5.75;63.12;100597.09;234106;1193;138985;-72
2023/02/15 07:20:13;;;;;;;30.30;23.20;;;;;;;5.74;63.17;100592.85;232667;1193;141177;-74
2023/02/15 07:25:17;;;;;;;35.60;22.40;;;;;;;5.78;62.85;100589.46;229586;1193;139170;-73
2023/02/15 07:30:20;;;;;;;31.90;23.30;;;;;;;5.71;62.73;100589.38;230505;1193;139348;-73
2023/02/15 07:35:24;;;;;;;36.50;24.50;;;;;;;5.73;62.92;100587.95;232687;1193;139960;-72
2023/02/15 07:40:28;;;;;;;40.70;25.90;;;;;;;5.75;62.94;100583.50;232181;1193;139247;-73
2023/02/15 07:45:32;;;;;;;34.80;22.80;;;;;;;5.79;63.07;100584.32;232153;1196;138955;-72
2023/02/15 07:50:35;;;;;;;34.30;23.80;;;;;;;5.84;62.78;100584.77;229737;1195;139339;-72
2023/02/15 07:55:38;;;;;;;37.70;25.50;;;;;;;5.88;63.02;100579.39;230519;1195;139479;-72
2023/02/15 08:00:57;;;;;;;33.30;22.60;;;;;;;6.00;62.81;100578.17;232412;1193;139515;-71
2023/02/15 08:06:03;;;;;;;203.90;125.50;;;;;;;6.03;62.87;100576.52;232548;1196;141155;-74
2023/02/15 08:11:33;;;;;;;40.20;27.20;;;;;;;6.08;62.89;100572.02;231635;1195;139660;-74
2023/02/15 08:16:40;;;;;;;37.90;26.30;;;;;;;6.11;62.35;100565.27;231895;1194;138650;-75
2023/02/15 08:21:49;;;;;;;36.40;25.90;;;;;;;6.11;62.34;100565.09;229751;1198;139707;-76
2023/02/15 08:26:54;;;;;;;39.60;25.90;;;;;;;6.09;62.25;100564.42;232193;1192;138831;-72
2023/02/15 08:32:03;;;;;;;93.40;62.70;;;;;;;6.15;63.09;100555.67;231480;1198;139796;-78
2023/02/15 08:37:07;;;;;;;40.80;27.60;;;;;;;6.26;63.06;100555.29;231012;1193;139460;-74
2023/02/15 08:42:11;;;;;;;36.10;24.10;;;;;;;6.31;62.45;100554.46;229765;1199;139408;-73
2023/02/15 08:47:17;;;;;;;35.30;23.40;;;;;;;6.31;62.17;100549.20;229379;1197;139559;-73
2023/02/15 08:52:22;;;;;;;28.70;21.30;;;;;;;6.31;62.21;100544.61;231123;1193;209475;-73
2023/02/15 08:57:27;;;;;;;37.40;23.80;;;;;;;6.37;61.79;100546.77;230063;1197;139066;-73
2023/02/15 09:02:32;;;;;;;41.40;27.90;;;;;;;6.36;61.67;100542.91;230786;1196;139373;-73
2023/02/15 09:07:37;;;;;;;40.10;25.00;;;;;;;6.47;61.89;100544.45;231566;1193;139756;-73
2023/02/15 09:12:41;;;;;;;32.60;22.60;;;;;;;6.56;61.80;100543.02;229696;1193;139902;-71
2023/02/15 09:17:45;;;;;;;35.20;23.30;;;;;;;6.59;61.53;100540.15;230787;1196;138702;-72
2023/02/15 09:22:53;;;;;;;40.10;23.70;;;;;;;6.64;61.76;100532.98;230477;1193;139477;-72
2023/02/15 09:28:02;;;;;;;33.40;22.10;;;;;;;6.73;61.53;100530.86;229477;1194;139606;-72
2023/02/15 09:33:06;;;;;;;68.90;41.00;;;;;;;6.77;61.52;100526.18;232838;1197;138964;-72
2023/02/15 09:38:11;;;;;;;32.20;22.80;;;;;;;6.91;61.34;100524.63;230460;1194;139129;-72
2023/02/15 09:43:34;;;;;;;;;;;;;;;7.03;60.81;100523.27;235195;1196;138850;-71
2023/02/15 09:48:48;;;;;;;33.70;23.00;;;;;;;7.07;60.66;100514.54;231526;1196;125449;-72
2023/02/15 09:54:10;;;;;;;32.00;22.10;;;;;;;7.14;60.22;100512.43;233037;1195;138985;-72
2023/02/15 09:59:32;;;;;;;29.60;20.30;;;;;;;7.13;60.37;100502.75;230638;1196;139559;-70
2023/02/15 10:05:04;;;;;;;36.70;22.10;;;;;;;7.22;60.56;100491.04;233379;1193;139265;-74
2023/02/15 10:10:52;;;;;;;39.30;24.00;;;;;;;7.30;60.03;100484.30;233918;1193;138563;-71
2023/02/15 10:16:05;;;;;;;40.10;24.80;;;;;;;7.50;60.13;100479.38;228799;1201;138764;-70
2023/02/15 10:21:24;;;;;;;33.40;22.80;;;;;;;7.69;59.83;100480.45;230062;1197;139420;-72
2023/02/15 10:26:41;;;;;;;31.60;22.00;;;;;;;7.85;59.43;100466.80;230675;1193;139054;-71
2023/02/15 10:31:54;;;;;;;190.00;117.30;;;;;;;8.02;59.54;100462.05;230409;1198;139499;-72
2023/02/15 10:37:25;;;;;;;32.90;23.00;;;;;;;8.20;59.00;100452.89;229958;1197;139212;-70
2023/02/15 10:42:52;;;;;;;28.90;20.80;;;;;;;8.45;59.03;100450.55;232186;1193;139064;-72
2023/02/15 10:48:14;;;;;;;;;;;;;;;8.75;59.01;100448.73;231062;1193;139271;-71
2023/02/15 10:53:20;;;;;;;28.90;21.00;;;;;;;9.05;58.32;100441.92;231339;1192;125576;-71
2023/02/15 10:58:55;;;;;;;375.20;259.50;;;;;;;9.31;57.84;100433.80;231145;1195;140437;-71
2023/02/15 11:04:36;;;;;;;33.30;24.10;;;;;;;9.57;57.61;100424.20;232903;1195;140427;-71
2023/02/15 11:09:48;;;;;;;27.40;21.10;;;;;;;9.76;56.77;100413.24;235487;1193;139692;-71
2023/02/15 11:15:19;;;;;;;29.90;22.80;;;;;;;9.89;56.61;100396.80;232100;1196;140406;-71
2023/02/15 11:20:32;;;;;;;35.10;23.80;;;;;;;10.05;56.25;100388.39;232038;1195;139477;-71
2023/02/15 11:25:36;;;;;;;36.80;23.00;;;;;;;10.15;55.40;100390.30;233008;1196;139455;-72
2023/02/15 11:30:45;;;;;;;28.30;22.40;;;;;;;10.19;55.39;100382.73;229848;1196;138890;-71
2023/02/15 11:35:52;;;;;;;30.60;22.40;;;;;;;10.16;55.84;100375.88;232913;1195;139817;-71
2023/02/15 11:41:02;;;;;;;40.20;25.70;;;;;;;10.22;55.45;100367.16;231466;1195;139418;-71
2023/02/15 11:46:10;;;;;;;37.40;24.80;;;;;;;10.34;55.03;100361.05;230118;1193;139086;-71
2023/02/15 11:51:17;;;;;;;28.00;21.00;;;;;;;10.47;54.13;100356.65;231580;1197;139774;-71
2023/02/15 11:56:25;;;;;;;30.10;23.00;;;;;;;10.56;54.05;100348.98;232897;1195;140197;-71
2023/02/15 12:01:39;;;;;;;34.70;24.20;;;;;;;10.75;54.55;100341.63;235799;1192;139398;-71
2023/02/15 12:07:02;;;;;;;32.10;24.10;;;;;;;10.93;54.10;100336.98;235204;1196;139159;-72
2023/02/15 12:12:26;;;;;;;32.40;23.80;;;;;;;11.15;53.42;100330.84;234759;1193;139180;-71
2023/02/15 12:17:34;;;;;;;373.90;269.40;;;;;;;11.39;53.23;100318.77;229803;1196;139401;-71
2023/02/15 12:22:39;;;;;;;43.20;28.50;;;;;;;11.72;53.19;100308.94;235647;1193;139538;-70
2023/02/15 12:27:43;;;;;;;33.70;23.80;;;;;;;11.99;52.17;100301.46;232508;1196;139181;-71
2023/02/15 12:33:04;;;;;;;32.20;22.70;;;;;;;12.04;51.69;100301.04;231443;1193;139723;-71
2023/02/15 12:38:11;;;;;;;32.50;23.60;;;;;;;12.09;51.70;100294.94;230892;1198;139552;-70
2023/02/15 12:43:34;;;;;;;35.30;23.80;;;;;;;12.13;51.25;100290.69;230426;1198;139557;-70
2023/02/15 12:48:37;;;;;;;30.80;23.10;;;;;;;12.18;51.04;100287.74;230695;1195;139615;-71
2023/02/15 12:53:43;;;;;;;32.90;23.20;;;;;;;12.21;50.97;100284.94;229130;1195;139362;-73
2023/02/15 12:58:47;;;;;;;29.60;21.50;;;;;;;12.24;51.06;100276.23;233627;1193;139653;-69
2023/02/15 13:04:13;;;;;;;30.00;21.70;;;;;;;12.29;50.88;100274.05;233747;1193;139333;-69
2023/02/15 13:09:32;;;;;;;;;;;;;;;12.37;50.39;100266.00;233436;1197;139759;-71
2023/02/15 13:14:36;;;;;;;27.70;21.20;;;;;;;12.42;50.45;100256.13;231234;1197;125573;-71
2023/02/15 13:19:44;;;;;;;31.20;22.70;;;;;;;12.52;50.28;100255.10;229054;1198;139218;-71
2023/02/15 13:24:59;;;;;;;31.90;22.80;;;;;;;12.64;50.00;100245.59;228945;1198;138974;-71
2023/02/15 13:30:14;;;;;;;33.40;23.30;;;;;;;12.77;49.63;100244.02;231223;1196;139131;-71
2023/02/15 13:35:18;;;;;;;;;;;;;;;12.86;49.71;100240.72;229440;1198;139754;-71
2023/02/15 13:40:31;;;;;;;32.80;22.80;;;;;;;12.95;49.50;100231.54;229673;1198;125803;-71
2023/02/15 13:46:29;;;;;;;29.70;22.90;;;;;;;12.96;49.30;100234.27;229761;1198;139703;-70
2023/02/15 13:51:53;;;;;;;28.70;21.60;;;;;;;12.88;49.05;100229.05;231488;1197;139274;-71
2023/02/15 13:57:19;;;;;;;29.20;22.20;;;;;;;12.74;49.40;100221.55;231143;1197;139619;-71
2023/02/15 14:02:35;;;;;;;29.10;22.40;;;;;;;12.54;49.20;100221.17;231637;1192;139046;-71
2023/02/15 14:07:41;;;;;;;35.20;23.10;;;;;;;12.26;49.87;100217.06;233932;1193;139502;-69
2023/02/15 14:13:18;;;;;;;29.30;22.40;;;;;;;12.01;50.17;100217.05;229819;1198;139624;-71
2023/02/15 14:18:35;;;;;;;32.10;21.50;;;;;;;11.75;50.63;100211.55;230319;1198;139195;-70
2023/02/15 14:23:57;;;;;;;26.80;18.80;;;;;;;11.57;51.10;100211.51;233337;1195;139239;-72
2023/02/15 14:29:20;;;;;;;33.70;22.70;;;;;;;12.09;52.41;100199.96;229640;1198;139497;-71
2023/02/15 14:34:44;;;;;;;34.60;22.10;;;;;;;11.80;51.14;100202.06;233131;1195;140701;-70
2023/02/15 14:45:52;;;;;;;30.10;21.80;;;;;;;11.32;55.12;100195.28;230694;1198;139750;-72
2023/02/15 14:50:56;;;;;;;30.30;21.70;;;;;;;12.02;52.41;100190.15;232964;1198;139497;-71
2023/02/15 14:56:19;;;;;;;33.60;22.90;;;;;;;11.59;51.97;100189.88;231174;1197;139698;-69
2023/02/15 15:01:26;;;;;;;32.50;22.20;;;;;;;11.23;52.49;100191.40;233040;1194;139661;-69
2023/02/15 15:06:32;;;;;;;31.40;21.80;;;;;;;10.97;52.76;100193.32;234340;1194;139065;-69
2023/02/15 15:11:45;;;;;;;30.60;21.80;;;;;;;10.76;53.42;100191.44;234136;1193;139834;-70
2023/02/15 15:16:50;;;;;;;30.20;21.90;;;;;;;10.55;53.74;100186.48;233839;1193;139089;-70
2023/02/15 15:21:56;;;;;;;32.30;21.80;;;;;;;10.40;53.90;100181.27;231532;1193;139637;-69
2023/02/15 15:27:25;;;;;;;;;;;;;;;10.26;54.40;100178.14;232732;1193;139324;-69
2023/02/15 15:32:33;;;;;;;33.40;21.90;;;;;;;10.10;54.57;100171.66;229339;1199;125015;-69
2023/02/15 15:37:46;;;;;;;32.80;22.70;;;;;;;9.95;55.20;100173.02;231575;1193;139048;-70
2023/02/15 15:42:50;;;;;;;33.60;22.50;;;;;;;9.81;55.71;100171.68;230722;1198;138994;-70
2023/02/15 15:48:28;;;;;;;34.60;24.00;;;;;;;9.69;55.88;100167.35;231966;1193;139494;-68
2023/02/15 15:53:42;;;;;;;32.70;23.30;;;;;;;9.57;56.41;100168.56;232086;1193;139646;-69
2023/02/15 15:58:52;;;;;;;40.50;24.50;;;;;;;9.43;56.89;100164.30;234669;1193;139166;-69
2023/02/15 16:03:58;;;;;;;41.20;24.90;;;;;;;9.32;56.98;100166.50;233376;1193;140446;-69
2023/02/15 16:09:26;;;;;;;38.40;25.00;;;;;;;9.19;57.35;100160.45;230936;1196;139952;-72
2023/02/15 16:14:35;;;;;;;37.80;25.70;;;;;;;9.05;57.67;100160.45;231310;1193;139334;-69
2023/02/15 16:19:41;;;;;;;35.90;25.80;;;;;;;8.95;58.01;100159.60;234940;1196;139114;-72
2023/02/15 16:25:00;;;;;;;43.20;26.60;;;;;;;8.85;58.14;100162.08;232439;1196;139532;-72
2023/02/15 16:30:35;;;;;;;40.30;27.30;;;;;;;8.74;58.42;100157.71;229583;1197;139258;-72
2023/02/15 16:43:42;;;;;;;46.20;30.20;;;;;;;8.45;59.16;100154.67;231259;1198;138667;-72
2023/02/15 16:48:51;;;;;;;46.40;31.10;;;;;;;8.34;59.49;100155.05;231475;1196;139299;-71
2023/02/15 16:54:00;;;;;;;45.80;30.90;;;;;;;8.24;59.58;100155.39;229537;1198;138783;-71
2023/02/15 17:05:53;;;;;;;52.90;33.80;;;;;;;8.04;60.45;100158.20;230882;1198;138661;-73
2023/02/15 17:11:12;;;;;;;53.80;33.20;;;;;;;7.94;60.62;100160.64;232336;1194;139424;-72
2023/02/15 17:17:30;;;;;;;51.90;34.60;;;;;;;7.84;60.73;100163.45;229984;1196;100397;-73
2023/02/15 19:12:51;;;;;;;85.60;47.10;;;;;;;5.97;63.78;100116.70;230619;1193;137968;-76
2023/02/15 19:17:55;;;;;;;82.40;46.70;;;;;;;5.91;63.67;100117.73;231210;1196;139055;-77
2023/02/15 19:23:00;;;;;;;79.00;44.40;;;;;;;5.84;63.76;100111.20;229144;1196;138974;-73
2023/02/15 19:28:36;;;;;;;79.60;45.90;;;;;;;5.81;64.25;100112.16;230334;1193;143558;-74
2023/02/15 19:33:44;;;;;;;73.80;43.30;;;;;;;5.74;63.86;100110.92;229697;1196;106839;-77
2023/02/15 20:46:06;;;;;;;;;;;;;;;;;;;;;
2023/02/15 20:53:19;;;;;;;93.60;52.90;;;;;;;4.44;64.00;100070.61;234677;1197;138125;-67
2023/02/15 20:58:55;;;;;;;;;;;;;;;;;;;;;
2023/02/15 21:04:46;;;;;;;89.40;51.10;;;;;;;4.20;64.67;100066.52;235682;1195;139030;-65
2023/02/15 21:10:00;;;;;;;84.70;47.80;;;;;;;4.19;64.38;100065.31;235676;1193;138524;-64
2023/02/15 21:16:28;;;;;;;106.00;59.50;;;;;;;4.24;64.46;100063.64;235270;1193;139495;-65
2023/02/15 21:22:20;;;;;;;91.70;49.70;;;;;;;4.35;65.54;100056.20;235152;1193;139801;-64
2023/02/15 21:28:30;;;;;;;86.70;50.40;;;;;;;4.38;64.62;100054.22;235188;1192;138673;-64
2023/02/15 21:34:20;;;;;;;93.20;51.70;;;;;;;4.38;64.71;100055.27;235183;1192;139331;-66
2023/02/15 21:40:06;;;;;;;90.60;51.10;;;;;;;4.34;64.17;100056.77;235549;1194;138992;-68
2023/02/15 21:58:08;;;;;;;86.60;48.50;;;;;;;4.28;65.76;100044.58;235644;1193;138807;-64
2023/02/15 22:04:07;;;;;;;96.60;53.70;;;;;;;4.45;66.38;100039.84;235480;1190;138701;-67
2023/02/15 22:09:57;;;;;;;;;;;;;;;;;;;;;
2023/02/15 22:16:49;;;;;;;92.40;54.80;;;;;;;4.63;66.10;100031.55;235691;1194;138336;-66
2023/02/15 22:21:58;;;;;;;97.70;55.60;;;;;;;4.65;66.07;100027.11;235721;1194;138175;-65
2023/02/15 22:28:47;;;;;;;;;;;;;;;;;;;;;
2023/02/15 22:35:48;;;;;;;100.20;57.40;;;;;;;4.78;65.69;100024.54;235704;1193;139111;-64
2023/02/15 22:46:55;;;;;;;;;;;;;;;;;;;;;
2023/02/15 22:59:13;;;;;;;90.00;53.90;;;;;;;4.88;65.76;100009.19;235612;1192;138848;-65
2023/02/15 23:05:12;;;;;;;;;;;;;;;;;;;;;
2023/02/15 23:10:45;;;;;;;92.40;54.90;;;;;;;4.73;65.63;100000.56;235225;1195;138607;-67
2023/02/15 23:16:53;;;;;;;96.60;56.00;;;;;;;4.65;65.68;100001.98;235312;1193;139309;-66
2023/02/15 23:23:34;;;;;;;94.60;55.50;;;;;;;4.59;65.79;99998.60;235715;1192;139624;-65
2023/02/15 23:29:13;;;;;;;;;;;;;;;;;;;;;
2023/02/15 23:35:02;;;;;;;;;;;;;;;;;;;;;
2023/02/15 23:41:22;;;;;;;97.50;58.20;;;;;;;4.46;65.97;99992.02;235507;1192;138831;-64
2023/02/15 23:53:40;;;;;;;105.50;58.80;;;;;;;4.39;65.94;99987.27;235424;1193;140145;-64
2023/02/15 23:59:21;;;;;;;105.50;59.30;;;;;;;4.41;65.56;99981.41;235729;1193;139249;-68
